Time;durP1;ratioP1;P1;durP2;ratioP2;P2;SDS_P1;SDS_P2;PMS_P1;PMS_P2;Temp;Humidity;BMP_temperature;BMP_pressure;BME280_temperature;BME280_humidity;BME280_pressure;Samples;Min_cycle;Max_cycle;Signal;HPM_P1;HPM_P2
2022/06/14 00:02:58;;;;;;;9.43;2.85;;;;;;;15.24;51.76;102340.41;5099081;28;20066;-65
2022/06/14 00:05:23;;;;;;;8.73;3.25;;;;;;;15.21;51.91;102347.34;5092299;28;20020;-65
2022/06/14 00:07:48;;;;;;;8.82;3.15;;;;;;;15.23;51.98;102347.94;5101201;28;20047;-64
2022/06/14 00:10:16;;;;;;;13.57;3.03;;;;;;;15.21;51.96;102354.91;5097030;28;20069;-64
2022/06/14 00:12:42;;;;;;;9.02;3.28;;;;;;;15.15;52.18;102350.28;5091318;28;20421;-65
2022/06/14 00:15:10;;;;;;;8.55;3.42;;;;;;;15.11;52.60;102357.47;5094544;28;20028;-65
2022/06/14 00:17:38;;;;;;;13.50;4.07;;;;;;;15.09;52.54;102346.53;5089617;28;20050;-65
2022/06/14 00:20:04;;;;;;;10.35;3.80;;;;;;;15.13;52.65;102338.47;5080371;28;20042;-66
2022/06/14 00:22:31;;;;;;;14.82;4.10;;;;;;;15.09;52.52;102337.28;5105150;28;20034;-66
2022/06/14 00:24:57;;;;;;;11.82;3.83;;;;;;;15.02;53.02;102345.81;5093582;28;20081;-65
2022/06/14 00:27:22;;;;;;;12.30;4.30;;;;;;;15.03;52.98;102336.34;5091635;28;20036;-64
2022/06/14 00:29:48;;;;;;;13.20;3.97;;;;;;;15.01;52.87;102334.88;5081194;28;20019;-64
2022/06/14 00:32:14;;;;;;;9.35;3.85;;;;;;;14.96;53.24;102344.00;5097141;28;20031;-64
2022/06/14 00:34:39;;;;;;;11.63;4.43;;;;;;;14.91;53.60;102350.34;5086751;28;20032;-64
2022/06/14 00:37:04;;;;;;;12.88;4.05;;;;;;;14.93;53.64;102350.97;5097097;28;20031;-65
2022/06/14 00:39:32;;;;;;;14.40;4.50;;;;;;;14.85;53.63;102348.50;5092081;28;20051;-66
2022/06/14 00:41:58;;;;;;;14.85;4.88;;;;;;;14.87;53.64;102342.69;5094044;28;20024;-65
2022/06/14 00:44:26;;;;;;;13.60;5.38;;;;;;;14.85;54.05;102339.28;5092910;28;20026;-65
2022/06/14 00:47:09;;;;;;;13.52;4.85;;;;;;;14.90;53.49;102329.06;5094241;28;20198;-66
2022/06/14 00:49:53;;;;;;;16.20;5.00;;;;;;;14.87;53.68;102329.56;5093751;28;20031;-66
2022/06/14 00:52:35;;;;;;;14.93;5.25;;;;;;;14.84;53.44;102338.44;5082743;28;20023;-65
2022/06/14 00:55:06;;;;;;;15.65;5.70;;;;;;;14.71;53.93;102333.97;5090490;28;20035;-65
2022/06/14 00:57:38;;;;;;;12.75;5.85;;;;;;;14.73;53.95;102334.56;5090064;28;20071;-65
2022/06/14 01:00:08;;;;;;;15.15;5.85;;;;;;;14.68;54.32;102331.66;5093854;28;20050;-64
2022/06/14 01:02:41;;;;;;;15.65;5.85;;;;;;;14.62;54.38;102332.66;5106342;28;20046;-65
2022/06/14 01:05:21;;;;;;;13.88;5.50;;;;;;;14.64;53.93;102327.66;5108267;28;20031;-65
2022/06/14 01:07:54;;;;;;;13.23;5.80;;;;;;;14.55;54.56;102328.28;5089984;28;20131;-65
2022/06/14 01:10:33;;;;;;;16.25;5.72;;;;;;;14.55;54.36;102323.53;5079900;28;20038;-65
2022/06/14 01:13:02;;;;;;;15.02;5.45;;;;;;;14.51;55.17;102327.06;5095522;28;20479;-65
2022/06/14 01:15:33;;;;;;;16.13;5.80;;;;;;;14.42;54.77;102321.81;5093121;28;20566;-65
2022/06/14 01:18:07;;;;;;;15.07;5.72;;;;;;;14.43;55.16;102328.25;5082277;28;20042;-65
2022/06/14 01:20:34;;;;;;;11.05;5.53;;;;;;;14.33;54.90;102328.84;5094219;28;20033;-65
2022/06/14 01:23:00;;;;;;;11.27;5.75;;;;;;;14.33;54.98;102334.41;5091201;28;20035;-66
2022/06/14 01:25:34;;;;;;;12.93;5.43;;;;;;;14.32;54.80;102329.94;5099538;28;20028;-66
2022/06/14 01:28:02;;;;;;;15.88;6.90;;;;;;;14.28;55.01;102328.72;5077261;28;20028;-65
2022/06/14 01:30:31;;;;;;;17.77;6.88;;;;;;;14.27;55.07;102323.38;5096587;28;20028;-66
2022/06/14 01:33:15;;;;;;;17.20;7.72;;;;;;;14.31;54.99;102319.88;5096926;28;20078;-66
2022/06/14 01:35:44;;;;;;;18.27;7.05;;;;;;;14.21;55.26;102325.19;5097093;28;20238;-66
2022/06/14 01:38:12;;;;;;;15.35;7.18;;;;;;;14.20;55.63;102318.75;5089472;28;20425;-65
2022/06/14 01:41:03;;;;;;;16.65;7.18;;;;;;;14.31;54.74;102317.06;5097720;28;20027;-67
2022/06/14 01:43:47;;;;;;;15.75;6.95;;;;;;;14.31;54.97;102310.63;5102262;28;20511;-66
2022/06/14 01:46:23;;;;;;;18.63;7.90;;;;;;;14.20;55.26;102307.59;5083630;28;20036;-66
2022/06/14 01:52:19;;;;;;;17.40;8.13;;;;;;;14.14;55.30;102316.91;5079290;28;20553;-65
2022/06/14 01:55:00;;;;;;;20.88;8.80;;;;;;;14.12;55.61;102312.69;5085827;28;20043;-66
2022/06/14 01:57:38;;;;;;;20.98;8.23;;;;;;;14.10;55.54;102317.66;5082355;28;20028;-66
2022/06/14 02:00:24;;;;;;;16.15;8.35;;;;;;;14.14;55.43;102307.69;5084068;28;20024;-66
2022/06/14 02:06:08;;;;;;;17.58;8.10;;;;;;;14.08;55.52;102305.88;5099720;28;20431;-63
2022/06/14 02:08:40;;;;;;;21.23;8.27;;;;;;;13.93;56.58;102306.34;5093557;28;20066;-66
2022/06/14 02:11:12;;;;;;;17.70;7.88;;;;;;;13.96;56.44;102297.50;5097721;28;20023;-66
2022/06/14 02:13:43;;;;;;;19.95;8.57;;;;;;;13.86;56.42;102294.44;5105422;28;20441;-66
2022/06/14 02:16:16;;;;;;;17.70;8.40;;;;;;;13.82;56.25;102301.59;5095842;28;20085;-65
2022/06/14 02:18:58;;;;;;;19.80;8.30;;;;;;;13.83;56.36;102295.75;5089288;28;20035;-66
2022/06/14 02:21:33;;;;;;;16.20;8.15;;;;;;;13.79;56.33;102294.53;5101244;28;20028;-67
2022/06/14 02:24:15;;;;;;;17.10;8.10;;;;;;;13.79;56.49;102290.91;5089043;28;20012;-65
2022/06/14 02:27:03;;;;;;;15.48;7.38;;;;;;;13.84;56.12;102291.03;5083334;28;20071;-65
2022/06/14 02:29:34;;;;;;;18.08;8.23;;;;;;;13.67;56.94;102286.13;5090939;28;20034;-65
2022/06/14 02:32:11;;;;;;;15.15;7.65;;;;;;;13.73;56.79;102282.41;5091999;28;20059;-65
2022/06/14 02:34:42;;;;;;;17.60;6.70;;;;;;;13.61;57.11;102284.31;5079056;28;20056;-65
2022/06/14 02:37:23;;;;;;;15.10;5.88;;;;;;;13.62;56.68;102287.94;5087992;28;20036;-65
2022/06/14 02:40:11;;;;;;;11.52;5.38;;;;;;;13.60;56.53;102287.34;5078629;28;20024;-65
2022/06/14 02:42:44;;;;;;;13.45;5.43;;;;;;;13.58;56.38;102281.16;5089634;28;20032;-65
2022/06/14 02:45:30;;;;;;;14.90;5.60;;;;;;;13.54;56.36;102274.34;5083963;28;20020;-65
2022/06/14 02:48:17;;;;;;;11.43;5.47;;;;;;;13.59;56.20;102278.09;5091579;28;20494;-64
2022/06/14 02:50:54;;;;;;;11.30;5.20;;;;;;;13.48;56.78;102277.00;5091671;28;20020;-65
2022/06/14 02:53:43;;;;;;;15.27;4.80;;;;;;;13.47;56.38;102274.44;5095973;28;20406;-65
2022/06/14 02:56:19;;;;;;;8.48;4.43;;;;;;;13.43;56.39;102270.44;5085686;28;20028;-65
2022/06/14 02:58:53;;;;;;;8.00;4.07;;;;;;;13.31;56.59;102270.38;5088023;28;20028;-65
2022/06/14 03:01:30;;;;;;;12.70;4.90;;;;;;;13.34;56.65;102271.84;5098255;28;20024;-65
2022/06/14 03:04:01;;;;;;;12.50;5.05;;;;;;;13.27;57.05;102271.94;5093221;28;20056;-65
2022/06/14 03:06:32;;;;;;;8.13;4.43;;;;;;;13.20;56.77;102276.72;5088551;28;20459;-66
2022/06/14 03:08:57;;;;;;;12.05;4.97;;;;;;;13.23;56.76;102274.34;5094165;28;21700;-65
2022/06/14 03:11:46;;;;;;;12.43;4.88;;;;;;;13.25;57.08;102282.50;5091559;28;20062;-65
2022/06/14 03:14:25;;;;;;;11.70;4.80;;;;;;;13.21;57.30;102282.09;5090318;28;20798;-65
2022/06/14 03:17:17;;;;;;;8.65;4.50;;;;;;;13.19;57.03;102277.81;5096747;28;20028;-65
2022/06/14 03:19:48;;;;;;;11.07;4.95;;;;;;;13.13;57.05;102281.56;5088466;28;20067;-66
2022/06/14 03:22:29;;;;;;;11.23;4.28;;;;;;;13.20;57.04;102280.41;5102043;28;20027;-65
2022/06/14 03:25:22;;;;;;;12.07;4.60;;;;;;;13.20;56.87;102273.94;5079426;28;20473;-66
2022/06/14 03:28:01;;;;;;;9.93;4.20;;;;;;;13.09;57.22;102280.34;5092797;28;20068;-66
2022/06/14 03:30:36;;;;;;;8.68;4.43;;;;;;;12.99;57.97;102278.94;5092590;28;20040;-65
2022/06/14 03:33:11;;;;;;;11.65;4.88;;;;;;;12.99;57.56;102284.53;5094905;28;20024;-65
2022/06/14 03:35:41;;;;;;;11.30;4.63;;;;;;;12.96;57.61;102289.72;5092549;28;20130;-65
2022/06/14 03:38:11;;;;;;;11.30;4.95;;;;;;;12.90;57.75;102285.09;5086848;28;20034;-65
2022/06/14 03:40:39;;;;;;;12.20;4.78;;;;;;;12.95;57.62;102285.22;5101245;28;20031;-65
2022/06/14 03:43:04;;;;;;;11.18;5.22;;;;;;;12.93;58.02;102274.31;5099725;28;20546;-65
2022/06/14 03:46:05;;;;;;;10.27;4.97;;;;;;;13.06;57.42;102280.81;5093939;28;20246;-68
2022/06/14 03:48:34;;;;;;;15.48;5.85;;;;;;;12.87;58.04;102282.75;5065370;28;20537;-66
2022/06/14 03:51:10;;;;;;;12.57;6.20;;;;;;;12.86;58.52;102281.06;5106067;28;20015;-65
2022/06/14 03:54:06;;;;;;;13.73;5.93;;;;;;;12.88;58.11;102276.94;5091629;28;20036;-65
2022/06/14 03:57:01;;;;;;;14.18;5.60;;;;;;;12.96;57.78;102273.84;5083477;28;20035;-66
2022/06/14 03:59:43;;;;;;;13.95;5.40;;;;;;;12.90;58.37;102274.78;5105119;28;20070;-65
2022/06/14 04:02:22;;;;;;;10.48;5.30;;;;;;;12.89;58.51;102275.88;5077738;28;20103;-65
2022/06/14 04:05:03;;;;;;;11.77;6.30;;;;;;;12.88;58.18;102284.44;5081044;28;20685;-65
2022/06/14 04:08:14;;;;;;;13.35;5.65;;;;;;;12.92;58.13;102278.16;5102134;28;20055;-65
2022/06/14 04:11:11;;;;;;;10.52;4.88;;;;;;;12.92;58.03;102282.91;5089892;28;20070;-65
2022/06/14 04:14:08;;;;;;;9.38;5.00;;;;;;;12.81;58.50;102287.34;5098364;28;20023;-65
2022/06/14 04:16:52;;;;;;;13.52;5.68;;;;;;;12.85;58.53;102293.28;5092745;28;20040;-65
2022/06/14 04:19:32;;;;;;;11.73;4.90;;;;;;;12.90;58.45;102297.09;5095653;28;20028;-66
2022/06/14 04:22:40;;;;;;;10.75;5.18;;;;;;;12.88;58.18;102290.88;5087577;28;20035;-66
2022/06/14 04:25:12;;;;;;;11.32;5.15;;;;;;;12.85;58.81;102293.28;5064078;28;20047;-66
2022/06/14 04:27:49;;;;;;;11.57;4.97;;;;;;;12.86;59.00;102295.84;5092607;28;20066;-66
2022/06/14 04:30:24;;;;;;;11.23;5.03;;;;;;;12.88;58.92;102288.09;5080686;28;20024;-66
2022/06/14 04:33:12;;;;;;;12.25;5.05;;;;;;;12.98;58.08;102291.19;5096171;28;20482;-66
2022/06/14 04:35:50;;;;;;;10.05;4.70;;;;;;;12.93;59.02;102299.41;5094326;28;20461;-66
2022/06/14 04:38:36;;;;;;;9.18;4.65;;;;;;;12.93;58.62;102299.41;5092225;28;20106;-65
2022/06/14 04:41:17;;;;;;;10.57;4.88;;;;;;;12.95;59.54;102302.78;5095068;28;20035;-66
2022/06/14 04:43:46;;;;;;;10.52;5.15;;;;;;;13.02;59.19;102303.56;5086050;28;20488;-66
2022/06/14 04:46:25;;;;;;;11.23;5.88;;;;;;;13.03;59.18;102296.06;5109438;28;20031;-66
2022/06/14 04:49:19;;;;;;;9.95;4.78;;;;;;;13.05;59.60;102298.59;5097548;28;20028;-65
2022/06/14 04:51:49;;;;;;;9.93;4.97;;;;;;;13.05;59.88;102301.38;5098402;28;20490;-65
2022/06/14 04:54:36;;;;;;;10.65;5.15;;;;;;;13.12;59.86;102308.56;5088779;28;20167;-65
2022/06/14 04:57:17;;;;;;;10.77;5.68;;;;;;;13.18;59.42;102299.28;5094503;28;20024;-64
2022/06/14 04:59:58;;;;;;;12.48;5.90;;;;;;;13.20;59.76;102293.47;5081026;28;20028;-65
2022/06/14 05:02:38;;;;;;;12.48;5.85;;;;;;;13.29;60.08;102296.81;5099415;28;20031;-66
2022/06/14 05:05:10;;;;;;;11.00;5.78;;;;;;;13.32;60.38;102299.97;5086285;28;20479;-66
2022/06/14 05:07:59;;;;;;;13.70;5.35;;;;;;;13.47;59.24;102302.34;5107022;28;20050;-66
2022/06/14 05:10:40;;;;;;;13.50;5.75;;;;;;;13.49;60.64;102303.81;5098136;28;20038;-65
2022/06/14 05:13:18;;;;;;;14.38;6.00;;;;;;;13.56;60.44;102300.94;5106434;28;20038;-65
2022/06/14 05:15:56;;;;;;;17.95;7.07;;;;;;;13.62;60.37;102297.16;5101288;28;20499;-65
2022/06/14 05:18:34;;;;;;;13.50;5.70;;;;;;;13.66;61.17;102300.34;5100991;28;20038;-65
2022/06/14 05:21:21;;;;;;;11.18;6.38;;;;;;;13.79;60.22;102311.28;5103030;28;20040;-65
2022/06/14 05:23:50;;;;;;;16.98;6.90;;;;;;;13.78;61.03;102300.38;5080505;28;20019;-66
2022/06/14 05:26:36;;;;;;;16.67;7.15;;;;;;;13.95;60.16;102305.03;5095905;28;20191;-65
2022/06/14 05:29:10;;;;;;;14.18;6.40;;;;;;;14.00;60.56;102299.56;5089398;28;20046;-65
2022/06/14 05:31:42;;;;;;;19.38;7.13;;;;;;;14.08;59.89;102303.09;5078231;28;20495;-65
2022/06/14 05:34:21;;;;;;;;;;;;;;;14.34;58.17;102302.59;5092834;28;20542;-65
2022/06/14 05:36:56;;;;;;;14.10;6.90;;;;;;;14.27;59.74;102303.84;5085855;28;19919;-66
2022/06/14 05:39:33;;;;;;;14.25;6.75;;;;;;;14.35;59.80;102309.91;5085502;28;20100;-66
2022/06/14 05:42:11;;;;;;;14.63;6.65;;;;;;;14.45;59.57;102304.53;5086215;28;20030;-65
2022/06/14 05:44:42;;;;;;;12.85;6.00;;;;;;;14.54;59.54;102307.88;5099374;28;20039;-66
2022/06/14 05:47:21;;;;;;;11.48;5.88;;;;;;;14.63;58.84;102311.97;5097729;28;20115;-66
2022/06/14 05:49:52;;;;;;;11.52;5.78;;;;;;;14.69;58.51;102308.19;5103600;28;20044;-65
2022/06/14 05:52:32;;;;;;;12.70;5.32;;;;;;;14.81;58.28;102308.16;5086706;28;20032;-65
2022/06/14 05:55:00;;;;;;;16.23;5.63;;;;;;;14.84;58.10;102304.88;5101147;28;20456;-65
2022/06/14 05:57:37;;;;;;;14.35;5.85;;;;;;;14.92;58.31;102303.66;5089632;28;20088;-65
2022/06/14 06:00:14;;;;;;;13.40;5.10;;;;;;;15.01;57.95;102302.16;5097255;28;20029;-65
2022/06/14 06:02:50;;;;;;;11.60;4.97;;;;;;;15.09;58.12;102310.19;5092406;28;20403;-66
2022/06/14 06:05:23;;;;;;;11.57;4.57;;;;;;;15.20;57.10;102312.06;5091406;28;20581;-65
2022/06/14 06:08:15;;;;;;;11.90;4.45;;;;;;;15.31;57.06;102317.88;5098817;28;20052;-65
2022/06/14 06:10:46;;;;;;;12.77;4.28;;;;;;;15.33;56.43;102321.28;5095608;28;20042;-64
2022/06/14 06:13:20;;;;;;;13.77;4.80;;;;;;;15.34;56.64;102323.00;5105005;28;20051;-65
2022/06/14 06:15:51;;;;;;;12.18;4.82;;;;;;;15.41;56.40;102313.34;5094770;28;20474;-65
2022/06/14 06:18:24;;;;;;;14.57;4.65;;;;;;;15.45;56.22;102325.75;5104219;28;20039;-64
2022/06/14 06:21:01;;;;;;;12.73;4.63;;;;;;;15.57;55.70;102330.44;5099347;28;20500;-64
2022/06/14 06:23:45;;;;;;;13.30;4.32;;;;;;;15.66;56.04;102326.16;5088865;28;20019;-66
2022/06/14 06:26:12;;;;;;;13.13;5.05;;;;;;;15.66;55.64;102324.19;5091451;28;20015;-64
2022/06/14 06:28:51;;;;;;;13.90;4.72;;;;;;;15.70;55.67;102321.75;5104125;28;20050;-65
2022/06/14 06:31:31;;;;;;;11.32;4.80;;;;;;;15.82;55.86;102321.69;5100242;28;20040;-65
2022/06/14 06:33:59;;;;;;;9.48;4.28;;;;;;;15.77;54.37;102318.78;5082279;28;20028;-66
2022/06/14 06:36:38;;;;;;;11.30;4.97;;;;;;;15.80;54.50;102321.94;5090830;28;20035;-65
2022/06/14 06:39:33;;;;;;;17.10;5.43;;;;;;;15.88;54.65;102323.47;5080627;28;20033;-65
2022/06/14 06:42:11;;;;;;;11.63;4.85;;;;;;;15.89;54.10;102328.81;5100839;28;20035;-65
2022/06/14 06:44:53;;;;;;;12.20;4.75;;;;;;;15.94;52.82;102331.69;5097470;28;20483;-64
2022/06/14 06:47:30;;;;;;;12.02;4.38;;;;;;;15.97;52.72;102333.16;5091792;28;20047;-65
2022/06/14 06:50:07;;;;;;;10.65;4.28;;;;;;;15.98;52.05;102329.25;5086497;28;20032;-65
2022/06/14 06:53:11;;;;;;;11.48;4.43;;;;;;;16.07;52.67;102330.53;5106359;28;20067;-67
2022/06/14 06:55:53;;;;;;;11.75;4.30;;;;;;;16.13;52.11;102325.84;5088121;28;20515;-66
2022/06/14 06:58:30;;;;;;;14.68;5.60;;;;;;;16.23;52.65;102327.97;5079364;28;20028;-67
2022/06/14 07:00:58;;;;;;;9.43;4.07;;;;;;;16.32;51.33;102324.50;5091015;28;20031;-66
2022/06/14 07:03:31;;;;;;;12.40;4.78;;;;;;;16.34;50.85;102325.06;5080816;28;20566;-67
2022/06/14 07:06:00;;;;;;;8.38;3.85;;;;;;;16.45;50.45;102324.13;5085733;28;20036;-67
2022/06/14 07:08:49;;;;;;;11.68;2.97;;;;;;;16.75;53.85;102325.72;5085732;28;20044;-71
2022/06/14 07:11:19;;;;;;;3.15;1.88;;;;;;;17.04;55.71;102325.53;5097369;28;20106;-67
2022/06/14 07:13:58;;;;;;;8.07;2.50;;;;;;;17.22;53.81;102328.03;5079741;28;20028;-67
2022/06/14 07:16:40;;;;;;;7.85;2.53;;;;;;;17.31;52.12;102326.44;5092531;28;20081;-69
2022/06/14 07:19:34;;;;;;;5.32;2.60;;;;;;;17.46;51.60;102324.94;5081317;28;20059;-67
2022/06/14 07:22:11;;;;;;;9.20;2.50;;;;;;;17.64;49.83;102324.56;5073505;28;20017;-68
2022/06/14 07:24:53;;;;;;;8.05;2.13;;;;;;;17.80;50.59;102326.47;5076655;28;20116;-70
2022/06/14 07:27:22;;;;;;;5.45;2.13;;;;;;;17.98;49.14;102313.97;5075290;28;20029;-69
2022/06/14 07:29:54;;;;;;;6.28;2.25;;;;;;;18.04;47.76;102315.72;5088308;28;20023;-71
2022/06/14 07:32:32;;;;;;;7.88;2.20;;;;;;;17.96;44.34;102316.22;5086267;28;20577;-70
2022/06/14 07:35:00;;;;;;;5.40;2.15;;;;;;;18.11;46.04;102316.31;5092974;28;20514;-69
2022/06/14 07:37:40;;;;;;;6.47;1.92;;;;;;;18.20;45.82;102325.13;5112627;28;20042;-68
2022/06/14 07:40:10;;;;;;;3.38;1.40;;;;;;;18.35;44.77;102325.25;5086287;28;20028;-67
2022/06/14 07:43:06;;;;;;;6.60;1.90;;;;;;;18.30;44.94;102322.38;5089318;28;20075;-67
2022/06/14 07:45:35;;;;;;;5.93;2.03;;;;;;;18.47;44.63;102325.06;5084892;28;20056;-67
2022/06/14 07:48:07;;;;;;;4.57;1.95;;;;;;;18.44;44.93;102319.13;5086822;28;20024;-68
2022/06/14 07:50:50;;;;;;;7.13;2.00;;;;;;;18.45;44.85;102318.00;5087216;28;20027;-66
2022/06/14 07:53:20;;;;;;;3.45;1.50;;;;;;;18.61;44.53;102312.19;5094617;28;20038;-66
2022/06/14 07:55:50;;;;;;;4.15;1.65;;;;;;;18.64;44.20;102314.47;5077683;28;20602;-65
2022/06/14 07:58:25;;;;;;;6.70;2.20;;;;;;;18.75;44.55;102312.59;5087512;28;20036;-68
2022/06/14 08:01:08;;;;;;;9.18;2.20;;;;;;;18.87;44.81;102318.00;5093624;28;20030;-65
2022/06/14 08:03:46;;;;;;;6.85;1.85;;;;;;;18.99;44.74;102312.16;5090307;28;20036;-66
2022/06/14 08:06:43;;;;;;;4.68;1.80;;;;;;;19.03;43.85;102308.50;5081131;28;20039;-67
2022/06/14 08:09:22;;;;;;;7.15;1.70;;;;;;;19.09;43.56;102320.63;5088340;28;20036;-66
2022/06/14 08:11:54;;;;;;;5.13;1.70;;;;;;;19.06;42.77;102305.16;5077843;28;20040;-66
2022/06/14 08:14:27;;;;;;;6.47;1.67;;;;;;;19.16;42.80;102307.16;5087136;28;20032;-66
2022/06/14 08:16:57;;;;;;;9.57;1.70;;;;;;;19.28;42.66;102304.09;5080657;28;20024;-66
2022/06/14 08:19:33;;;;;;;6.07;1.70;;;;;;;19.16;42.22;102304.34;5090707;28;20074;-66
2022/06/14 08:22:13;;;;;;;4.90;1.40;;;;;;;19.34;42.73;102297.38;5093677;28;20044;-66
2022/06/14 08:24:46;;;;;;;6.63;1.65;;;;;;;19.29;41.88;102298.16;5091197;28;20039;-66
2022/06/14 08:27:20;;;;;;;8.98;1.80;;;;;;;19.37;42.02;102296.78;5087638;28;20105;-65
2022/06/14 08:29:57;;;;;;;5.85;1.50;;;;;;;19.47;41.87;102285.56;5073544;28;20388;-66
2022/06/14 08:32:29;;;;;;;7.28;1.90;;;;;;;19.47;41.76;102299.63;5075541;28;20456;-66
2022/06/14 08:35:07;;;;;;;6.53;1.60;;;;;;;19.59;41.57;102296.56;5086383;28;20036;-66
2022/06/14 08:37:45;;;;;;;7.20;1.77;;;;;;;19.57;41.44;102293.16;5093727;28;20038;-66
2022/06/14 08:40:23;;;;;;;5.97;1.70;;;;;;;19.66;41.24;102287.88;5081072;28;20036;-66
2022/06/14 08:42:54;;;;;;;7.80;1.80;;;;;;;19.64;40.68;102293.78;5100764;28;20024;-66
2022/06/14 08:46:11;;;;;;;6.28;1.63;;;;;;;19.66;41.43;102294.38;5096540;28;20162;-66
2022/06/14 08:48:42;;;;;;;6.53;2.28;;;;;;;19.54;40.67;102286.16;5072465;28;20105;-66
2022/06/14 08:51:34;;;;;;;4.28;2.03;;;;;;;19.55;41.28;102292.63;5097008;28;20038;-65
2022/06/14 08:54:25;;;;;;;3.30;1.60;;;;;;;19.54;41.49;102305.00;5079394;28;20073;-66
2022/06/14 08:57:27;;;;;;;6.43;2.00;;;;;;;19.54;41.36;102291.78;5092856;28;20050;-66
2022/06/14 09:00:02;;;;;;;6.10;1.60;;;;;;;19.64;40.89;102284.50;5078325;28;20032;-65
2022/06/14 09:02:42;;;;;;;5.45;1.42;;;;;;;19.75;41.23;102289.84;5082531;28;20012;-65
2022/06/14 09:05:21;;;;;;;5.82;1.80;;;;;;;19.78;40.26;102292.13;5092748;28;20039;-65
2022/06/14 09:08:29;;;;;;;7.38;2.00;;;;;;;19.80;41.13;102284.22;5076916;28;20050;-65
2022/06/14 09:10:54;;;;;;;7.35;2.55;;;;;;;19.72;40.07;102292.38;5092614;28;20036;-66
2022/06/14 09:13:50;;;;;;;7.63;2.33;;;;;;;19.81;41.44;102297.19;5093184;28;20081;-65
2022/06/14 09:16:52;;;;;;;4.93;1.55;;;;;;;19.90;40.85;102283.41;5093282;28;20020;-66
2022/06/14 09:19:51;;;;;;;6.35;2.20;;;;;;;19.86;40.75;102285.94;5096040;28;20136;-66
2022/06/14 09:22:34;;;;;;;4.80;1.92;;;;;;;19.96;40.94;102285.06;5085969;28;20031;-66
2022/06/14 09:25:20;;;;;;;4.75;1.45;;;;;;;20.12;40.46;102285.91;5097654;28;20031;-66
2022/06/14 09:28:23;;;;;;;6.43;1.92;;;;;;;20.09;41.39;102280.84;5075777;28;20353;-66
2022/06/14 09:31:07;;;;;;;8.88;1.80;;;;;;;20.14;41.04;102280.00;5093492;28;20046;-66
2022/06/14 09:33:47;;;;;;;7.78;2.40;;;;;;;20.19;40.58;102280.84;5096771;28;20032;-66
2022/06/14 09:36:15;;;;;;;6.47;2.35;;;;;;;20.20;39.69;102282.53;5093228;28;20059;-66
2022/06/14 09:39:01;;;;;;;4.75;2.10;;;;;;;20.26;40.74;102267.28;5092140;28;20111;-67
2022/06/14 09:42:08;;;;;;;6.55;2.33;;;;;;;20.26;40.29;102283.38;5093221;28;20032;-66
2022/06/14 09:44:52;;;;;;;7.93;2.35;;;;;;;20.17;39.88;102268.16;5016128;28;20040;-66
2022/06/14 09:47:38;;;;;;;4.57;1.90;;;;;;;20.22;40.46;102266.19;5071965;28;20568;-66
2022/06/14 09:50:36;;;;;;;4.93;1.85;;;;;;;20.37;40.52;102256.84;5087228;28;20482;-66
2022/06/14 09:53:36;;;;;;;5.57;2.15;;;;;;;20.39;40.21;102259.38;5102434;28;20058;-65
2022/06/14 09:56:18;;;;;;;5.82;1.83;;;;;;;20.45;39.97;102252.59;5091779;28;20122;-66
2022/06/14 09:59:33;;;;;;;4.88;2.50;;;;;;;20.33;39.99;102252.91;5094248;28;20020;-65
2022/06/14 10:02:21;;;;;;;6.15;2.30;;;;;;;20.35;39.41;102259.09;5096727;28;20109;-65
2022/06/14 10:05:08;;;;;;;8.25;2.20;;;;;;;20.43;40.05;102252.88;5101605;28;20043;-66
2022/06/14 10:07:58;;;;;;;7.47;2.60;;;;;;;20.37;40.43;102247.56;5089506;28;20143;-66
2022/06/14 10:11:03;;;;;;;5.72;2.35;;;;;;;20.47;40.40;102248.34;5078883;28;20016;-65
2022/06/14 10:13:50;;;;;;;8.25;2.42;;;;;;;20.52;40.13;102250.38;5079962;28;20082;-64
2022/06/14 10:16:18;;;;;;;6.72;2.70;;;;;;;20.47;39.90;102245.53;5091106;28;20032;-66
2022/06/14 10:19:17;;;;;;;6.05;2.30;;;;;;;20.49;40.48;102239.66;5099345;28;20034;-66
2022/06/14 10:21:53;;;;;;;5.47;2.50;;;;;;;20.55;40.05;102241.31;5092206;28;20093;-66
2022/06/14 10:24:24;;;;;;;8.02;2.75;;;;;;;20.53;39.16;102240.75;5092227;28;20352;-66
2022/06/14 10:30:12;;;;;;;5.72;2.20;;;;;;;20.65;39.92;102232.81;5074019;28;20074;-67
2022/06/14 10:33:14;;;;;;;6.90;2.22;;;;;;;20.65;39.44;102224.34;5092391;28;20107;-66
2022/06/14 10:35:49;;;;;;;6.85;2.05;;;;;;;20.73;39.72;102220.09;5091020;28;20048;-67
2022/06/14 10:38:17;;;;;;;5.88;2.90;;;;;;;20.68;38.56;102226.59;5094809;28;20097;-66
2022/06/14 10:41:04;;;;;;;6.03;2.60;;;;;;;20.67;39.09;102215.59;5090331;28;20574;-66
2022/06/14 10:43:44;;;;;;;5.30;2.00;;;;;;;20.78;39.53;102212.44;5075101;28;20043;-65
2022/06/14 10:46:22;;;;;;;7.13;2.50;;;;;;;20.86;39.63;102207.34;5084374;28;20746;-67
2022/06/14 10:48:50;;;;;;;7.88;2.50;;;;;;;20.90;39.61;102200.81;5085702;28;20503;-65
2022/06/14 10:51:31;;;;;;;7.05;2.63;;;;;;;20.95;39.88;102203.63;5085666;28;20107;-64
2022/06/14 10:54:11;;;;;;;6.40;3.45;;;;;;;20.94;39.11;102201.06;5074257;28;20177;-65
2022/06/14 10:56:39;;;;;;;8.73;3.20;;;;;;;20.90;38.53;102195.16;5084625;28;20039;-65
2022/06/14 10:59:15;;;;;;;5.22;2.50;;;;;;;20.95;39.59;102185.84;5085756;28;20036;-64
2022/06/14 11:01:56;;;;;;;11.25;2.42;;;;;;;20.94;39.63;102195.44;5092154;28;20031;-68
2022/06/14 11:04:27;;;;;;;8.20;3.08;;;;;;;20.95;39.08;102185.84;5088857;28;20024;-65
2022/06/14 11:07:24;;;;;;;7.07;2.63;;;;;;;20.98;39.01;102182.44;5091529;28;20071;-66
2022/06/14 11:10:20;;;;;;;4.20;2.40;;;;;;;21.04;39.08;102178.44;5086787;28;20032;-66
2022/06/14 11:12:56;;;;;;;8.05;3.45;;;;;;;21.01;38.27;102179.03;5090097;28;20537;-65
2022/06/14 11:15:45;;;;;;;9.18;2.85;;;;;;;21.06;39.63;102176.16;5091923;28;20028;-66
2022/06/14 11:18:38;;;;;;;6.97;2.60;;;;;;;21.02;38.48;102175.91;5079106;28;20055;-66
2022/06/14 11:21:26;;;;;;;8.10;3.08;;;;;;;21.04;38.09;102176.47;5078221;28;20020;-67
2022/06/14 11:24:03;;;;;;;6.65;2.30;;;;;;;21.11;39.02;102172.50;5048944;28;20055;-66
2022/06/14 11:26:50;;;;;;;5.88;2.33;;;;;;;21.20;38.90;102168.75;5080090;28;20485;-65
2022/06/14 11:29:28;;;;;;;8.50;3.00;;;;;;;21.17;37.95;102177.78;5086727;28;20024;-65
2022/06/14 11:32:02;;;;;;;7.60;2.70;;;;;;;21.06;37.94;102168.56;5090201;28;20433;-68
2022/06/14 11:34:52;;;;;;;7.18;2.20;;;;;;;21.12;38.43;102163.72;5074454;28;20039;-67
2022/06/14 11:37:54;;;;;;;5.50;2.20;;;;;;;21.13;38.56;102154.09;5097850;28;20057;-67
2022/06/14 11:40:29;;;;;;;7.00;2.33;;;;;;;21.19;37.99;102152.94;5077444;28;20093;-67
2022/06/14 11:43:11;;;;;;;7.70;2.65;;;;;;;21.22;37.99;102146.72;5088615;28;20020;-65
2022/06/14 11:45:39;;;;;;;6.28;2.25;;;;;;;21.24;37.21;102147.25;5076595;28;20127;-65
2022/06/14 11:48:33;;;;;;;5.93;2.28;;;;;;;21.21;37.76;102149.81;5094096;28;20085;-67
2022/06/14 11:51:38;;;;;;;6.88;2.78;;;;;;;21.17;37.90;102143.06;5082166;28;20024;-67
2022/06/14 11:54:19;;;;;;;6.35;2.70;;;;;;;21.20;38.01;102139.66;5082658;28;20115;-70
2022/06/14 11:56:50;;;;;;;3.50;1.80;;;;;;;21.32;38.12;102134.47;5089015;28;20020;-67
2022/06/14 11:59:24;;;;;;;5.15;2.22;;;;;;;21.39;38.42;102134.19;5089257;28;20020;-68
2022/06/14 12:02:12;;;;;;;5.80;2.40;;;;;;;21.34;37.64;102132.25;5078429;28;20081;-70
2022/06/14 12:05:16;;;;;;;6.78;2.40;;;;;;;21.39;38.40;102132.19;5076528;28;20032;-70
2022/06/14 12:07:54;;;;;;;8.00;3.55;;;;;;;21.41;37.24;102137.53;5052323;28;20051;-71
2022/06/14 12:10:39;;;;;;;9.18;2.88;;;;;;;21.45;37.36;102136.66;5082166;28;20036;-68
2022/06/14 12:13:11;;;;;;;6.25;2.70;;;;;;;21.48;37.88;102138.91;5091231;28;20395;-70
2022/06/14 12:16:17;;;;;;;5.10;2.50;;;;;;;21.52;37.73;102139.16;5089547;28;20036;-68
2022/06/14 12:19:04;;;;;;;5.97;2.92;;;;;;;21.47;37.50;102130.72;5004374;28;20517;-67
2022/06/14 12:21:45;;;;;;;6.07;2.60;;;;;;;21.52;37.81;102125.84;5003677;28;20037;-67
2022/06/14 12:24:17;;;;;;;6.65;2.80;;;;;;;21.46;37.68;102126.22;5000584;28;20036;-70
2022/06/14 12:27:01;;;;;;;6.80;3.53;;;;;;;21.41;37.93;102118.59;5044024;28;20048;-66
2022/06/14 12:29:37;;;;;;;6.88;2.97;;;;;;;21.48;37.44;102124.78;5081138;28;20375;-66